Time;durP1;ratioP1;P1;durP2;ratioP2;P2;SDS_P1;SDS_P2;PMS_P1;PMS_P2;Temp;Humidity;BMP_temperature;BMP_pressure;BME280_temperature;BME280_humidity;BME280_pressure;Samples;Min_cycle;Max_cycle;Signal;HPM_P1;HPM_P2
2022/04/03 00:01:12;;;;;;;8.97;7.27;;;7.60;59.70;;;;;;5042678;28;20923;-45
2022/04/03 00:03:38;;;;;;;8.77;7.97;;;7.60;59.60;;;;;;5052746;28;20228;-47
2022/04/03 00:06:03;;;;;;;9.23;8.30;;;7.50;59.60;;;;;;5048185;28;20653;-45
2022/04/03 00:08:31;;;;;;;10.90;8.00;;;7.50;59.80;;;;;;5048463;28;20220;-47
2022/04/03 00:10:57;;;;;;;11.23;7.90;;;7.50;59.80;;;;;;5055288;28;20193;-45
2022/04/03 00:13:22;;;;;;;9.83;7.97;;;7.60;59.70;;;;;;5050012;28;20457;-48
2022/04/03 00:15:48;;;;;;;8.57;7.67;;;7.60;59.50;;;;;;5043704;28;20432;-45
2022/04/03 00:18:14;;;;;;;10.93;8.70;;;7.60;59.50;;;;;;5045516;28;20229;-47
2022/04/03 00:20:41;;;;;;;9.17;8.00;;;7.60;59.50;;;;;;5043636;28;20930;-45
2022/04/03 00:23:08;;;;;;;9.27;8.33;;;7.60;59.50;;;;;;5046903;28;20487;-49
2022/04/03 00:25:34;;;;;;;8.67;7.47;;;7.60;59.50;;;;;;5047664;28;20458;-46
2022/04/03 00:28:00;;;;;;;8.67;7.77;;;7.60;59.40;;;;;;5048919;28;20485;-46
2022/04/03 00:30:26;;;;;;;9.93;8.63;;;7.60;59.40;;;;;;5050610;28;20461;-45
2022/04/03 00:32:51;;;;;;;12.00;9.20;;;7.60;59.40;;;;;;5050172;28;20450;-46
2022/04/03 00:35:18;;;;;;;9.87;8.87;;;7.70;59.50;;;;;;5047833;28;20192;-45
2022/04/03 00:37:44;;;;;;;9.43;8.50;;;7.70;59.40;;;;;;5046138;28;20296;-46
2022/04/03 00:40:10;;;;;;;10.70;9.60;;;7.70;59.30;;;;;;5057364;28;20878;-47
2022/04/03 00:42:36;;;;;;;9.87;8.63;;;7.70;59.20;;;;;;5051143;28;20227;-45
2022/04/03 00:45:04;;;;;;;9.63;8.43;;;7.70;59.20;;;;;;5049029;28;20478;-47
2022/04/03 00:47:31;;;;;;;11.20;9.00;;;7.60;59.20;;;;;;5045690;28;20526;-46
2022/04/03 00:49:57;;;;;;;9.30;8.40;;;7.60;59.40;;;;;;5047175;28;20482;-49
2022/04/03 00:52:23;;;;;;;12.90;9.20;;;7.60;59.40;;;;;;5047522;28;20467;-45
2022/04/03 00:54:48;;;;;;;9.90;8.87;;;7.50;59.50;;;;;;5048546;28;20762;-46
2022/04/03 00:57:14;;;;;;;13.63;9.40;;;7.50;59.60;;;;;;5049153;28;20622;-46
2022/04/03 00:59:42;;;;;;;11.00;9.27;;;7.50;59.70;;;;;;5029898;28;20250;-47
2022/04/03 01:02:08;;;;;;;12.70;9.40;;;7.50;59.80;;;;;;5051553;28;20687;-45
2022/04/03 01:04:36;;;;;;;11.07;9.63;;;7.50;59.60;;;;;;5049096;28;20513;-45
2022/04/03 01:07:01;;;;;;;10.30;9.03;;;7.60;59.50;;;;;;5041925;28;20454;-45
2022/04/03 01:09:27;;;;;;;11.53;9.70;;;7.60;59.40;;;;;;5040609;28;20427;-46
2022/04/03 01:11:53;;;;;;;11.03;9.70;;;7.60;59.50;;;;;;5044962;28;20729;-47
2022/04/03 01:14:38;;;;;;;12.93;9.40;;;7.50;59.50;;;;;;5039507;28;20201;-45
2022/04/03 01:17:05;;;;;;;11.53;10.27;;;7.60;59.80;;;;;;5051462;28;20269;-45
2022/04/03 01:19:31;;;;;;;12.07;9.10;;;7.60;59.50;;;;;;5047372;28;20533;-46
2022/04/03 01:21:58;;;;;;;13.47;9.90;;;7.60;59.50;;;;;;5048153;28;20601;-46
2022/04/03 01:24:25;;;;;;;11.77;10.13;;;7.60;59.70;;;;;;5045807;28;20240;-46
2022/04/03 01:26:52;;;;;;;13.47;9.83;;;7.60;59.80;;;;;;5050445;28;20447;-48
2022/04/03 01:29:18;;;;;;;11.87;10.70;;;7.60;59.60;;;;;;5043790;28;20446;-47
2022/04/03 01:31:46;;;;;;;15.40;10.60;;;7.60;59.60;;;;;;5052530;28;20435;-47
2022/04/03 01:34:15;;;;;;;10.57;9.13;;;7.50;59.70;;;;;;5047866;28;20447;-47
2022/04/03 01:36:40;;;;;;;13.47;9.80;;;7.50;59.70;;;;;;5045400;28;20439;-45
2022/04/03 01:39:06;;;;;;;11.47;9.90;;;7.50;59.80;;;;;;5052908;28;20454;-49
2022/04/03 01:41:32;;;;;;;12.60;10.20;;;7.50;59.80;;;;;;5048838;28;20311;-46
2022/04/03 01:43:57;;;;;;;11.73;10.30;;;7.50;59.70;;;;;;5047975;28;20212;-45
2022/04/03 01:46:23;;;;;;;10.47;8.90;;;7.60;59.70;;;;;;5046120;28;20208;-45
2022/04/03 01:48:49;;;;;;;13.17;10.27;;;7.60;59.90;;;;;;5057683;28;20204;-45
2022/04/03 01:51:15;;;;;;;11.77;10.53;;;7.60;59.90;;;;;;5045791;28;20510;-46
2022/04/03 01:53:40;;;;;;;13.37;10.77;;;7.50;59.80;;;;;;5054007;28;20677;-46
2022/04/03 01:56:07;;;;;;;13.87;11.47;;;7.60;59.90;;;;;;5050986;28;20200;-45
2022/04/03 01:58:34;;;;;;;17.40;11.40;;;7.60;59.70;;;;;;5051336;28;20200;-46
2022/04/03 02:01:01;;;;;;;11.40;10.30;;;7.60;59.80;;;;;;5049064;28;20528;-46
2022/04/03 02:03:27;;;;;;;11.53;9.90;;;7.60;59.80;;;;;;5060032;28;20486;-46
2022/04/03 02:05:53;;;;;;;13.80;11.37;;;7.60;59.90;;;;;;5051606;28;20974;-49
2022/04/03 02:08:19;;;;;;;11.53;10.33;;;7.60;59.80;;;;;;5048817;28;20465;-45
2022/04/03 02:10:45;;;;;;;14.73;11.00;;;7.50;59.80;;;;;;5043833;28;20446;-46
2022/04/03 02:13:11;;;;;;;13.00;10.70;;;7.50;59.90;;;;;;5051246;28;20451;-45
2022/04/03 02:15:37;;;;;;;13.93;10.73;;;7.50;59.90;;;;;;5057630;28;20788;-47
2022/04/03 02:18:02;;;;;;;13.27;11.30;;;7.50;59.80;;;;;;5044009;28;20618;-45
2022/04/03 02:20:28;;;;;;;13.83;11.53;;;7.50;59.80;;;;;;5048857;28;20314;-48
2022/04/03 02:22:54;;;;;;;14.50;11.70;;;7.40;59.60;;;;;;5051041;28;20231;-46
2022/04/03 02:25:20;;;;;;;12.90;10.90;;;7.40;60.10;;;;;;5047359;28;20236;-46
2022/04/03 02:27:46;;;;;;;13.57;10.90;;;7.40;60.00;;;;;;5051880;28;20663;-47
2022/04/03 02:30:13;;;;;;;14.47;12.30;;;7.30;59.90;;;;;;5042392;28;20440;-46
2022/04/03 02:32:41;;;;;;;15.17;11.10;;;7.40;60.20;;;;;;5047263;28;20435;-46
2022/04/03 02:35:09;;;;;;;14.37;11.27;;;7.40;60.00;;;;;;5050386;28;20443;-46
2022/04/03 02:37:36;;;;;;;16.20;11.17;;;7.40;59.90;;;;;;5054098;28;20457;-46
2022/04/03 02:40:06;;;;;;;14.20;11.30;;;7.40;59.90;;;;;;5046765;28;20447;-45
2022/04/03 02:42:33;;;;;;;12.53;11.20;;;7.30;60.20;;;;;;5057331;28;20489;-45
2022/04/03 02:44:58;;;;;;;14.07;12.00;;;7.40;60.10;;;;;;5053250;28;20514;-47
2022/04/03 02:47:24;;;;;;;11.73;10.53;;;7.50;59.90;;;;;;5049860;28;20550;-45
2022/04/03 02:49:51;;;;;;;12.53;10.70;;;7.50;59.80;;;;;;5046731;28;20205;-47
2022/04/03 02:52:18;;;;;;;11.53;9.67;;;7.40;59.80;;;;;;5050711;28;20279;-46
2022/04/03 02:54:45;;;;;;;12.67;11.40;;;7.40;59.80;;;;;;5049726;28;20449;-45
2022/04/03 02:57:11;;;;;;;12.13;10.20;;;7.40;60.00;;;;;;5049258;28;20841;-47
2022/04/03 02:59:37;;;;;;;13.10;11.67;;;7.50;59.90;;;;;;5043405;28;20485;-45
2022/04/03 03:02:02;;;;;;;14.00;11.70;;;7.50;59.70;;;;;;5042884;28;20569;-45
2022/04/03 03:04:28;;;;;;;14.40;11.50;;;7.60;59.70;;;;;;5026436;28;20683;-45
2022/04/03 03:06:54;;;;;;;14.33;12.77;;;7.60;59.50;;;;;;5049644;28;20230;-45
2022/04/03 03:09:19;;;;;;;15.00;11.73;;;7.60;59.60;;;;;;5046738;28;20203;-45
2022/04/03 03:11:45;;;;;;;12.67;11.30;;;7.60;59.60;;;;;;5046559;28;20215;-45
2022/04/03 03:14:11;;;;;;;13.67;12.00;;;7.60;59.40;;;;;;5037825;28;20658;-46
2022/04/03 03:16:36;;;;;;;13.10;11.50;;;7.60;59.40;;;;;;5051370;28;20200;-45
2022/04/03 03:19:02;;;;;;;14.73;12.17;;;7.60;59.60;;;;;;5049898;28;20716;-46
2022/04/03 03:21:28;;;;;;;13.80;11.23;;;7.50;59.70;;;;;;5051085;28;20254;-45
2022/04/03 03:23:54;;;;;;;14.20;11.40;;;7.50;59.80;;;;;;5044696;28;20243;-46
2022/04/03 03:26:20;;;;;;;16.10;12.27;;;7.60;59.80;;;;;;5049754;28;20193;-45
2022/04/03 03:28:46;;;;;;;15.60;12.17;;;7.60;59.60;;;;;;5041558;28;21926;-45
2022/04/03 03:31:11;;;;;;;17.03;11.80;;;7.60;59.60;;;;;;5045732;28;20443;-45
2022/04/03 03:33:37;;;;;;;15.70;12.77;;;7.60;59.70;;;;;;5050393;28;20222;-45
2022/04/03 03:36:04;;;;;;;14.10;12.20;;;7.60;59.60;;;;;;5049574;28;20585;-45
2022/04/03 03:38:30;;;;;;;14.80;12.37;;;7.60;59.60;;;;;;5049390;28;20197;-46
2022/04/03 03:40:55;;;;;;;18.80;12.20;;;7.60;59.50;;;;;;5055535;28;20528;-45
2022/04/03 03:43:21;;;;;;;18.43;11.67;;;7.60;59.40;;;;;;5052509;28;20224;-45
2022/04/03 03:45:46;;;;;;;14.07;12.57;;;7.60;59.40;;;;;;5052677;28;20196;-45
2022/04/03 03:48:12;;;;;;;13.23;11.90;;;7.60;59.40;;;;;;5049019;28;20262;-46
2022/04/03 03:50:38;;;;;;;12.83;11.33;;;7.60;59.30;;;;;;5046399;28;20196;-47
2022/04/03 03:53:04;;;;;;;15.10;12.50;;;7.60;59.30;;;;;;5047177;28;20193;-46
2022/04/03 03:55:30;;;;;;;15.43;11.63;;;7.60;59.30;;;;;;5045572;28;20215;-46
2022/04/03 03:57:55;;;;;;;13.60;11.13;;;7.60;59.30;;;;;;5029887;28;20447;-47
2022/04/03 04:00:21;;;;;;;16.17;11.63;;;7.60;59.30;;;;;;5046424;28;20663;-45
2022/04/03 04:02:47;;;;;;;13.23;11.00;;;7.60;59.20;;;;;;5047655;28;20220;-46
2022/04/03 04:05:12;;;;;;;13.33;11.93;;;7.60;59.30;;;;;;5046896;28;20200;-45
2022/04/03 04:07:45;;;;;;;17.03;12.30;;;7.60;59.40;;;;;;5048903;28;20690;-45
2022/04/03 04:10:16;;;;;;;15.20;12.23;;;7.60;59.40;;;;;;5059605;28;20192;-45
2022/04/03 04:12:43;;;;;;;15.50;12.40;;;7.60;59.40;;;;;;5044107;28;20458;-45
2022/04/03 04:15:10;;;;;;;14.40;12.03;;;7.60;59.30;;;;;;5048296;28;20482;-46
2022/04/03 04:17:38;;;;;;;15.20;12.33;;;7.60;59.10;;;;;;5050212;28;20431;-48
2022/04/03 04:20:11;;;;;;;14.60;11.50;;;7.60;59.30;;;;;;5027649;28;20459;-46
2022/04/03 04:22:37;;;;;;;14.47;11.93;;;7.60;59.50;;;;;;5050477;28;20566;-45
2022/04/03 04:25:03;;;;;;;15.93;11.50;;;7.60;59.50;;;;;;5044018;28;21236;-45
2022/04/03 04:27:29;;;;;;;12.53;10.90;;;7.60;59.40;;;;;;5046905;28;20439;-46
2022/04/03 04:29:55;;;;;;;17.40;13.37;;;7.60;59.40;;;;;;5044113;28;20456;-45
2022/04/03 04:32:21;;;;;;;12.17;10.47;;;7.50;59.50;;;;;;5048068;28;20197;-46
2022/04/03 04:34:50;;;;;;;15.20;11.63;;;7.50;59.60;;;;;;5055890;28;20196;-45
2022/04/03 04:37:19;;;;;;;14.87;10.90;;;7.60;59.70;;;;;;5048790;28;20435;-45
2022/04/03 04:39:46;;;;;;;13.80;11.03;;;7.50;59.60;;;;;;5056078;28;20446;-45
2022/04/03 04:42:13;;;;;;;14.70;11.13;;;7.50;59.50;;;;;;5050622;28;20482;-45
2022/04/03 04:44:39;;;;;;;13.67;10.47;;;7.50;59.50;;;;;;5048364;28;20782;-47
2022/04/03 04:47:05;;;;;;;13.30;11.00;;;7.50;59.40;;;;;;5046227;28;20450;-45
2022/04/03 04:49:31;;;;;;;14.43;10.33;;;7.60;59.40;;;;;;5048640;28;20481;-46
2022/04/03 04:51:56;;;;;;;13.77;10.07;;;7.50;59.20;;;;;;5047228;28;20241;-45
2022/04/03 04:54:23;;;;;;;12.60;9.87;;;7.50;59.10;;;;;;5048704;28;20196;-46
2022/04/03 04:56:48;;;;;;;13.70;9.93;;;7.60;59.00;;;;;;5049007;28;20755;-46
2022/04/03 04:59:14;;;;;;;11.67;10.47;;;7.60;58.80;;;;;;5047523;28;20513;-46
2022/04/03 05:01:40;;;;;;;12.30;10.37;;;7.60;58.80;;;;;;5050998;28;20188;-47
2022/04/03 05:04:06;;;;;;;11.70;10.30;;;7.60;58.60;;;;;;5052867;28;20347;-46
2022/04/03 05:06:32;;;;;;;12.70;9.70;;;7.60;58.50;;;;;;5046856;28;20203;-45
2022/04/03 05:08:58;;;;;;;12.60;9.90;;;7.60;58.40;;;;;;5044882;28;20438;-45
2022/04/03 05:11:25;;;;;;;11.40;9.27;;;7.50;58.30;;;;;;5025633;28;20554;-46
2022/04/03 05:13:51;;;;;;;12.70;10.40;;;7.50;58.50;;;;;;5047028;28;20442;-44
2022/04/03 05:16:16;;;;;;;11.13;9.23;;;7.50;59.30;;;;;;5044531;28;20454;-44
2022/04/03 05:18:42;;;;;;;13.00;9.70;;;7.50;58.50;;;;;;5045890;28;20575;-45
2022/04/03 05:21:09;;;;;;;11.00;9.10;;;7.50;58.70;;;;;;5042379;28;20435;-44
2022/04/03 05:23:34;;;;;;;11.30;9.30;;;7.80;59.40;;;;;;5048596;28;20634;-44
2022/04/03 05:26:00;;;;;;;13.93;9.70;;;8.10;59.20;;;;;;5051282;28;20545;-46
2022/04/03 05:28:29;;;;;;;11.67;9.23;;;8.40;58.80;;;;;;5047187;28;20184;-45
2022/04/03 05:30:55;;;;;;;10.40;8.03;;;8.70;58.60;;;;;;5045768;28;20197;-43
2022/04/03 05:33:21;;;;;;;10.00;8.23;;;8.90;57.90;;;;;;5045177;28;20443;-43
2022/04/03 05:35:46;;;;;;;9.87;8.87;;;9.00;56.50;;;;;;5028277;28;20453;-43
2022/04/03 05:38:12;;;;;;;10.40;8.37;;;9.10;55.60;;;;;;5046789;28;20447;-44
2022/04/03 05:40:38;;;;;;;10.70;8.37;;;9.10;54.90;;;;;;5044994;28;20189;-44
2022/04/03 05:43:04;;;;;;;10.83;8.23;;;9.20;54.50;;;;;;5047444;28;20229;-44
2022/04/03 05:45:30;;;;;;;10.13;8.53;;;9.10;54.00;;;;;;5048493;28;20250;-44
2022/04/03 05:47:56;;;;;;;8.90;8.00;;;9.10;54.10;;;;;;5048082;28;20526;-44
2022/04/03 05:50:23;;;;;;;10.40;8.73;;;9.00;54.10;;;;;;5045774;28;20470;-45
2022/04/03 05:52:50;;;;;;;9.00;7.40;;;9.10;54.40;;;;;;5047981;28;20446;-44
2022/04/03 05:55:18;;;;;;;10.20;8.97;;;9.20;54.30;;;;;;5048244;28;20506;-45
2022/04/03 05:57:45;;;;;;;9.03;8.10;;;9.30;53.90;;;;;;5045442;28;20435;-44
2022/04/03 06:00:13;;;;;;;9.73;8.67;;;9.30;53.70;;;;;;5047561;28;20858;-45
2022/04/03 06:02:47;;;;;;;11.33;8.07;;;9.30;53.50;;;;;;5045874;28;20497;-44
2022/04/03 06:05:12;;;;;;;9.20;8.30;;;9.40;53.40;;;;;;5048102;28;20450;-44
2022/04/03 06:07:38;;;;;;;8.27;7.47;;;9.40;53.10;;;;;;5049462;28;20427;-45
2022/04/03 06:10:04;;;;;;;8.80;6.93;;;9.50;53.30;;;;;;5047826;28;20338;-43
2022/04/03 06:12:30;;;;;;;11.97;9.43;;;9.50;52.80;;;;;;5049884;28;20723;-43
2022/04/03 06:14:56;;;;;;;10.87;8.97;;;9.50;52.80;;;;;;5047735;28;20438;-43
2022/04/03 06:17:22;;;;;;;8.10;6.90;;;9.60;52.90;;;;;;5046839;28;20192;-43
2022/04/03 06:19:49;;;;;;;9.40;8.27;;;9.60;52.60;;;;;;5046925;28;20441;-43
2022/04/03 06:22:14;;;;;;;10.97;7.73;;;9.70;53.10;;;;;;5048334;28;20220;-43
2022/04/03 06:24:40;;;;;;;9.47;8.30;;;10.00;53.40;;;;;;5038599;28;20483;-43
2022/04/03 06:27:05;;;;;;;8.43;7.10;;;10.20;53.30;;;;;;5047544;28;20295;-43
2022/04/03 06:29:31;;;;;;;9.07;7.67;;;10.20;51.40;;;;;;5047828;28;20195;-43
2022/04/03 06:31:57;;;;;;;7.23;6.57;;;10.00;50.70;;;;;;5047068;28;20250;-46
2022/04/03 06:34:22;;;;;;;7.53;6.83;;;9.90;51.70;;;;;;5044949;28;20197;-44
2022/04/03 06:36:48;;;;;;;7.00;6.30;;;9.70;51.70;;;;;;5048770;28;20254;-43
2022/04/03 06:39:13;;;;;;;7.53;6.77;;;9.60;51.90;;;;;;5051389;28;20866;-43
2022/04/03 06:41:39;;;;;;;9.17;7.20;;;9.40;52.20;;;;;;5051367;28;20235;-44
2022/04/03 06:44:05;;;;;;;7.57;6.80;;;9.30;52.80;;;;;;5051591;28;20243;-44
2022/04/03 06:46:31;;;;;;;6.27;5.67;;;9.30;53.10;;;;;;5046542;28;20683;-43
2022/04/03 06:48:57;;;;;;;10.63;6.23;;;9.20;52.50;;;;;;5051730;28;20192;-43
2022/04/03 06:51:23;;;;;;;8.30;7.50;;;9.30;52.50;;;;;;5050499;28;20993;-42
2022/04/03 06:53:48;;;;;;;9.57;6.80;;;9.20;52.60;;;;;;5050174;28;20431;-43
2022/04/03 06:56:14;;;;;;;8.23;6.93;;;9.30;53.00;;;;;;5051865;28;20838;-43
2022/04/03 06:58:40;;;;;;;6.00;5.40;;;9.30;52.20;;;;;;5048547;28;20199;-43
2022/04/03 07:01:05;;;;;;;7.97;6.93;;;9.30;52.10;;;;;;5049318;28;20295;-44
2022/04/03 07:03:32;;;;;;;9.83;5.90;;;9.40;52.10;;;;;;5053239;28;20281;-43
2022/04/03 07:05:58;;;;;;;7.93;6.43;;;9.40;52.00;;;;;;5051473;28;20197;-45
2022/04/03 07:08:24;;;;;;;6.80;6.10;;;9.40;52.00;;;;;;5052522;28;20594;-44
2022/04/03 07:10:50;;;;;;;7.83;6.10;;;9.40;52.30;;;;;;5048940;28;20994;-43
2022/04/03 07:13:16;;;;;;;7.37;6.53;;;9.40;52.60;;;;;;5046846;28;20455;-43
2022/04/03 07:15:41;;;;;;;10.50;5.67;;;9.30;52.30;;;;;;5048646;28;20548;-42
2022/04/03 07:18:10;;;;;;;6.17;5.57;;;9.30;52.10;;;;;;5051712;28;20431;-43
2022/04/03 07:20:35;;;;;;;6.60;6.00;;;9.20;51.80;;;;;;5051781;28;20591;-42
2022/04/03 07:23:01;;;;;;;7.30;5.53;;;9.20;52.20;;;;;;5052051;28;20552;-43
2022/04/03 07:25:27;;;;;;;7.27;6.57;;;9.20;52.40;;;;;;5048755;28;20260;-43
2022/04/03 07:27:52;;;;;;;7.80;7.10;;;9.20;52.70;;;;;;5051527;28;20201;-43
2022/04/03 07:30:18;;;;;;;8.23;5.97;;;9.30;53.00;;;;;;5060643;28;20709;-43
2022/04/03 07:32:43;;;;;;;8.93;5.57;;;9.30;53.20;;;;;;5050316;28;20284;-43
2022/04/03 07:35:11;;;;;;;8.27;5.87;;;9.30;52.50;;;;;;5048464;28;20192;-43
2022/04/03 07:37:37;;;;;;;6.57;5.77;;;9.30;52.50;;;;;;5050905;28;20200;-43
2022/04/03 07:40:06;;;;;;;7.13;5.60;;;9.40;52.70;;;;;;5063502;28;20438;-44
2022/04/03 07:42:32;;;;;;;10.23;6.27;;;9.40;53.00;;;;;;5049876;28;20482;-44
2022/04/03 07:44:57;;;;;;;21.23;12.20;;;9.40;53.20;;;;;;5049176;28;20435;-46
2022/04/03 07:47:23;;;;;;;16.97;10.40;;;9.50;53.40;;;;;;5057428;28;20180;-44
2022/04/03 07:49:49;;;;;;;6.50;5.50;;;9.50;53.00;;;;;;5061345;28;20196;-44
2022/04/03 07:52:15;;;;;;;4.50;4.10;;;9.40;51.60;;;;;;5051631;28;20247;-47
2022/04/03 07:54:41;;;;;;;6.90;5.80;;;9.30;50.30;;;;;;5049647;28;20238;-43
2022/04/03 07:57:07;;;;;;;9.30;7.23;;;9.30;50.10;;;;;;5049637;28;20431;-43
2022/04/03 07:59:33;;;;;;;7.93;6.53;;;9.30;50.90;;;;;;5049909;28;20197;-45
2022/04/03 08:01:59;;;;;;;5.10;4.30;;;9.30;52.00;;;;;;5050438;28;20212;-43
2022/04/03 08:04:24;;;;;;;9.73;4.53;;;9.40;52.20;;;;;;5050564;28;20450;-44
2022/04/03 08:06:50;;;;;;;6.03;4.87;;;9.40;51.70;;;;;;5058229;28;20328;-44
2022/04/03 08:09:16;;;;;;;4.50;3.73;;;9.40;51.40;;;;;;5049633;28;20666;-43
2022/04/03 08:11:42;;;;;;;5.27;4.03;;;9.10;50.90;;;;;;5051120;28;20193;-44
2022/04/03 08:14:09;;;;;;;5.73;4.93;;;9.10;50.10;;;;;;5051163;28;20207;-43
2022/04/03 08:16:34;;;;;;;5.03;4.53;;;9.10;49.80;;;;;;5055861;28;20442;-43
2022/04/03 08:19:03;;;;;;;6.17;5.07;;;9.10;50.30;;;;;;5050550;28;20431;-43
2022/04/03 08:21:29;;;;;;;8.30;5.73;;;9.10;52.00;;;;;;5049790;28;20189;-44
2022/04/03 08:23:55;;;;;;;5.10;4.67;;;9.20;52.20;;;;;;5050113;28;20567;-43
2022/04/03 08:26:25;;;;;;;8.20;5.73;;;9.30;52.10;;;;;;5050798;28;20633;-43
2022/04/03 08:28:54;;;;;;;9.57;8.40;;;9.30;51.40;;;;;;5049866;28;20200;-43
2022/04/03 08:31:24;;;;;;;8.53;7.00;;;9.30;50.40;;;;;;5050168;28;20443;-45
2022/04/03 08:33:50;;;;;;;7.90;5.77;;;9.30;50.20;;;;;;5049487;28;20835;-43
2022/04/03 08:36:16;;;;;;;4.80;4.30;;;9.40;50.80;;;;;;5049843;28;20793;-43
2022/04/03 08:38:42;;;;;;;4.70;3.87;;;9.30;50.50;;;;;;5049008;28;20454;-45
2022/04/03 08:41:08;;;;;;;5.40;4.30;;;9.60;50.10;;;;;;5050272;28;20188;-44
2022/04/03 08:43:34;;;;;;;6.50;4.33;;;9.80;50.50;;;;;;5048543;28;20479;-44
2022/04/03 08:46:01;;;;;;;4.10;3.70;;;10.10;49.60;;;;;;5057869;28;20453;-44
2022/04/03 08:48:31;;;;;;;4.70;4.03;;;10.20;49.80;;;;;;5051220;28;20185;-47
2022/04/03 08:51:01;;;;;;;5.33;4.93;;;10.40;49.00;;;;;;5049928;28;20522;-46
2022/04/03 08:53:29;;;;;;;5.37;4.23;;;10.50;50.40;;;;;;5050240;28;20431;-44
2022/04/03 08:55:55;;;;;;;5.50;4.80;;;10.60;48.70;;;;;;5049513;28;20449;-46
2022/04/03 08:58:20;;;;;;;6.97;4.23;;;10.70;49.00;;;;;;5050202;28;20431;-47
2022/04/03 09:00:46;;;;;;;4.43;3.53;;;10.90;49.40;;;;;;5048034;28;20671;-44
2022/04/03 09:03:13;;;;;;;6.33;4.57;;;11.20;48.40;;;;;;5049878;28;20227;-44
2022/04/03 09:05:40;;;;;;;5.37;4.00;;;11.40;49.10;;;;;;5047784;28;20211;-47
2022/04/03 09:08:07;;;;;;;5.67;4.27;;;11.60;49.20;;;;;;5048724;28;20439;-46
2022/04/03 09:10:33;;;;;;;4.37;3.60;;;11.80;49.30;;;;;;5049795;28;20443;-45
2022/04/03 09:12:59;;;;;;;4.00;3.60;;;11.90;47.00;;;;;;5050331;28;20792;-43
2022/04/03 09:15:25;;;;;;;3.63;3.30;;;11.70;44.80;;;;;;5049572;28;20558;-46
2022/04/03 09:17:52;;;;;;;3.10;2.90;;;11.50;42.90;;;;;;5046608;28;20441;-44
2022/04/03 09:20:37;;;;;;;7.40;4.03;;;11.40;42.70;;;;;;5047645;28;20437;-48
2022/04/03 09:23:07;;;;;;;6.30;5.47;;;11.30;42.60;;;;;;5045723;28;20992;-44
2022/04/03 09:25:33;;;;;;;15.97;14.27;;;11.40;44.60;;;;;;5048521;28;20443;-44
2022/04/03 09:28:01;;;;;;;4.10;3.67;;;11.30;44.00;;;;;;5049548;28;20435;-44
2022/04/03 09:30:37;;;;;;;4.83;3.50;;;11.30;43.40;;;;;;5046284;28;20189;-47
2022/04/03 09:33:06;;;;;;;4.53;4.13;;;11.20;42.80;;;;;;5045878;28;20442;-44
2022/04/03 09:35:53;;;;;;;4.37;4.07;;;11.20;43.70;;;;;;5045508;28;20522;-43
2022/04/03 09:38:19;;;;;;;4.30;3.90;;;11.10;43.50;;;;;;5047095;28;20478;-44
2022/04/03 09:40:52;;;;;;;4.30;3.57;;;11.00;43.20;;;;;;5047073;28;20549;-44
2022/04/03 09:43:31;;;;;;;5.03;4.30;;;11.10;44.60;;;;;;5047819;28;20843;-44
2022/04/03 09:46:04;;;;;;;4.80;3.63;;;11.10;45.60;;;;;;5043825;28;20443;-47
2022/04/03 09:48:39;;;;;;;3.80;3.40;;;11.00;45.20;;;;;;5048927;28;20462;-45
2022/04/03 09:51:05;;;;;;;3.53;3.10;;;11.10;45.20;;;;;;5045763;28;20529;-45
2022/04/03 09:53:46;;;;;;;4.20;3.80;;;11.10;44.80;;;;;;5045650;28;20439;-45
2022/04/03 09:56:14;;;;;;;3.47;3.17;;;11.00;45.60;;;;;;5044838;28;20470;-45
2022/04/03 09:58:51;;;;;;;5.57;4.00;;;11.00;44.90;;;;;;5048216;28;20875;-45
2022/04/03 10:01:27;;;;;;;4.00;3.63;;;10.90;43.80;;;;;;5046872;28;20791;-43
2022/04/03 10:03:53;;;;;;;3.70;3.40;;;10.80;44.70;;;;;;5047293;28;20482;-44
2022/04/03 10:06:19;;;;;;;3.53;3.23;;;10.90;45.20;;;;;;5054216;28;20463;-45
2022/04/03 10:08:47;;;;;;;4.03;3.63;;;10.30;43.30;;;;;;5053666;28;20497;-44
2022/04/03 10:11:14;;;;;;;4.50;4.03;;;10.10;44.90;;;;;;5047295;28;20204;-44
2022/04/03 10:13:40;;;;;;;5.30;4.10;;;10.20;45.60;;;;;;5048875;28;20450;-44
2022/04/03 10:16:05;;;;;;;5.33;3.57;;;10.30;44.90;;;;;;5051279;28;20435;-44
2022/04/03 10:18:33;;;;;;;4.23;3.00;;;10.40;43.40;;;;;;5052066;28;20800;-44
2022/04/03 10:20:59;;;;;;;4.03;3.57;;;10.30;43.00;;;;;;5050530;28;20189;-45
2022/04/03 10:23:27;;;;;;;3.27;2.93;;;10.40;43.40;;;;;;5056042;28;20492;-44
2022/04/03 10:25:55;;;;;;;4.80;4.40;;;10.40;43.40;;;;;;5052173;28;20431;-45
2022/04/03 10:28:22;;;;;;;4.10;3.23;;;10.50;43.80;;;;;;5062258;28;20515;-49
2022/04/03 10:30:58;;;;;;;4.03;3.60;;;10.60;43.80;;;;;;5051878;28;20427;-44
2022/04/03 10:33:24;;;;;;;5.43;3.80;;;10.60;43.00;;;;;;5057645;28;20454;-45
2022/04/03 10:36:07;;;;;;;3.60;3.23;;;10.50;43.70;;;;;;5051277;28;20938;-44
2022/04/03 10:38:44;;;;;;;6.30;2.20;;;10.60;45.00;;;;;;5043819;28;20196;-47
2022/04/03 10:41:27;;;;;;;3.30;2.87;;;10.60;44.30;;;;;;5050476;28;20486;-46
2022/04/03 10:44:13;;;;;;;3.50;2.20;;;10.70;42.60;;;;;;5051159;28;20871;-44
2022/04/03 10:47:03;;;;;;;2.70;2.50;;;10.70;41.40;;;;;;5064663;28;20472;-44
2022/04/03 10:50:01;;;;;;;6.77;4.10;;;10.60;43.30;;;;;;5051155;28;20434;-46
2022/04/03 10:52:38;;;;;;;3.87;3.30;;;10.60;43.00;;;;;;5031974;28;20507;-45
2022/04/03 10:55:22;;;;;;;2.93;2.67;;;10.70;43.00;;;;;;5050098;28;20427;-45
2022/04/03 10:57:58;;;;;;;3.37;2.73;;;10.40;42.90;;;;;;5049725;28;20469;-44
2022/04/03 11:00:24;;;;;;;3.20;2.63;;;10.40;41.70;;;;;;5049686;28;20488;-47
2022/04/03 11:02:52;;;;;;;3.90;3.27;;;10.50;42.10;;;;;;5050339;28;20490;-44
2022/04/03 11:05:26;;;;;;;3.07;2.77;;;10.50;42.50;;;;;;5048237;28;20189;-45
2022/04/03 11:08:02;;;;;;;3.70;2.97;;;10.40;42.00;;;;;;5055529;28;20452;-44
2022/04/03 11:10:59;;;;;;;5.47;2.90;;;10.10;41.50;;;;;;5050283;28;20935;-44
2022/04/03 11:13:31;;;;;;;3.50;3.20;;;10.10;42.80;;;;;;5052109;28;20439;-46
2022/04/03 11:15:59;;;;;;;4.90;3.33;;;10.30;43.80;;;;;;5043833;28;20946;-44
2022/04/03 11:18:32;;;;;;;2.67;2.47;;;10.40;41.20;;;;;;5044025;28;21210;-44
2022/04/03 11:21:18;;;;;;;3.17;2.87;;;10.60;40.20;;;;;;5051241;28;20427;-46
2022/04/03 11:23:48;;;;;;;3.53;3.23;;;10.80;38.90;;;;;;5052297;28;20483;-45
2022/04/03 11:26:15;;;;;;;3.10;2.70;;;11.00;40.40;;;;;;5048883;28;20439;-44
2022/04/03 11:28:42;;;;;;;3.83;3.40;;;11.20;39.60;;;;;;5051261;28;20435;-46
2022/04/03 11:31:08;;;;;;;4.50;4.10;;;11.50;40.70;;;;;;5049887;28;20806;-44
2022/04/03 11:33:34;;;;;;;4.03;3.63;;;11.80;42.50;;;;;;5050709;28;20447;-44
2022/04/03 11:36:07;;;;;;;3.63;2.73;;;11.80;41.10;;;;;;5050478;28;20189;-44
2022/04/03 11:38:39;;;;;;;3.67;3.37;;;11.50;38.00;;;;;;5045239;28;20473;-48
2022/04/03 11:41:06;;;;;;;5.30;4.00;;;11.70;39.50;;;;;;5049154;28;20538;-44
2022/04/03 11:43:33;;;;;;;3.90;3.30;;;11.70;39.60;;;;;;5050122;28;20892;-46
2022/04/03 11:46:01;;;;;;;4.40;3.40;;;11.40;38.40;;;;;;5048519;28;20954;-45
2022/04/03 11:48:32;;;;;;;2.87;2.63;;;11.30;39.00;;;;;;5051241;28;20793;-44
2022/04/03 11:51:06;;;;;;;3.47;3.20;;;11.40;39.40;;;;;;5048288;28;20493;-44
2022/04/03 11:53:32;;;;;;;3.33;2.70;;;11.30;38.70;;;;;;5056793;28;20446;-44
2022/04/03 11:56:05;;;;;;;3.03;2.50;;;11.40;37.70;;;;;;5044637;28;20854;-45
2022/04/03 11:58:32;;;;;;;4.67;3.90;;;11.50;37.40;;;;;;5048008;28;20838;-44
2022/04/03 12:00:58;;;;;;;3.70;3.37;;;11.60;38.50;;;;;;5046973;28;20431;-43
2022/04/03 12:03:27;;;;;;;3.53;3.00;;;11.70;39.70;;;;;;5049613;28;20496;-44
2022/04/03 12:06:16;;;;;;;6.40;3.57;;;11.70;39.80;;;;;;5045731;28;20443;-45
2022/04/03 12:08:45;;;;;;;4.30;3.50;;;11.70;39.30;;;;;;5042480;28;20500;-44
2022/04/03 12:11:18;;;;;;;3.03;2.73;;;11.90;39.40;;;;;;5048209;28;20434;-44
2022/04/03 12:13:44;;;;;;;3.30;3.00;;;12.00;38.70;;;;;;5046033;28;20934;-44
2022/04/03 12:16:21;;;;;;;3.93;2.77;;;12.00;37.30;;;;;;5048445;28;20446;-44
2022/04/03 12:18:48;;;;;;;3.53;3.23;;;12.00;37.40;;;;;;5045142;28;20704;-45
2022/04/03 12:21:14;;;;;;;3.00;2.70;;;12.00;37.30;;;;;;5042134;28;20435;-44
2022/04/03 12:24:00;;;;;;;7.10;5.57;;;12.10;37.20;;;;;;5044183;28;22305;-46
2022/04/03 12:26:26;;;;;;;17.60;12.33;;;12.10;36.00;;;;;;5046129;28;20197;-44
2022/04/03 12:28:52;;;;;;;3.40;3.10;;;12.10;36.30;;;;;;5047295;28;20435;-44
2022/04/03 12:31:17;;;;;;;3.53;2.90;;;11.60;36.60;;;;;;5045738;28;20194;-45
2022/04/03 12:33:43;;;;;;;5.80;2.97;;;11.30;36.80;;;;;;5046267;28;20250;-45
2022/04/03 12:36:09;;;;;;;2.70;2.50;;;11.30;37.20;;;;;;5049343;28;20203;-44
2022/04/03 12:38:34;;;;;;;3.13;2.83;;;11.30;36.80;;;;;;5050826;28;20188;-44
2022/04/03 12:41:00;;;;;;;3.00;2.43;;;11.50;36.90;;;;;;5056348;28;20199;-45
2022/04/03 12:43:26;;;;;;;2.90;2.60;;;11.40;35.90;;;;;;5056323;28;20266;-44
2022/04/03 12:45:56;;;;;;;3.13;2.83;;;11.40;36.40;;;;;;5054472;28;20515;-44
2022/04/03 12:48:22;;;;;;;3.67;3.23;;;11.60;36.80;;;;;;5044799;28;20278;-44